createdAt,value
2022-07-31T00:06:34.133Z,19
2022-07-31T00:16:36.711Z,18.5
2022-07-31T00:26:38.718Z,18.1
2022-07-31T00:36:40.432Z,17.8
2022-07-31T00:46:42.592Z,17.3
2022-07-31T00:56:44.445Z,16.9
2022-07-31T01:06:46.317Z,16.6
2022-07-31T01:16:48.587Z,16.4
2022-07-31T01:26:50.285Z,16.3
2022-07-31T01:36:52.752Z,16.1
2022-07-31T01:56:57.547Z,15.6
2022-07-31T02:06:59.732Z,15.5
2022-07-31T02:17:01.595Z,15.4
2022-07-31T02:27:03.847Z,15.4
2022-07-31T02:37:06.012Z,15.2
2022-07-31T02:47:07.972Z,15.1
2022-07-31T02:57:09.822Z,14.9
2022-07-31T03:07:12.321Z,14.8
2022-07-31T03:17:14.015Z,14.8
2022-07-31T03:27:16.651Z,14.8
2022-07-31T03:47:20.938Z,15.2
2022-07-31T04:07:25.718Z,15.5
2022-07-31T04:17:28.174Z,15.6
2022-07-31T04:27:30.143Z,15.9
2022-07-31T04:37:32.333Z,16.2
2022-07-31T04:47:34.343Z,16.4
2022-07-31T04:57:36.607Z,16.6
2022-07-31T05:07:38.559Z,16.7
2022-07-31T05:17:40.698Z,16.9
2022-07-31T05:27:42.739Z,17
2022-07-31T05:37:45.099Z,17.2
2022-07-31T05:47:47.285Z,17.5
2022-07-31T05:57:49.839Z,17.8
2022-07-31T06:07:52.023Z,18.2
2022-07-31T06:17:54.223Z,18.9
2022-07-31T06:27:59.257Z,19.9
2022-07-31T06:37:57.984Z,20.5
2022-07-31T06:58:02.117Z,21.1
2022-07-31T07:08:04.232Z,21
2022-07-31T07:18:06.118Z,21
2022-07-31T07:28:10.011Z,21.4
2022-07-31T07:38:10.333Z,22
2022-07-31T07:48:12.712Z,22.3
2022-07-31T07:58:14.703Z,21.9
2022-07-31T08:08:16.731Z,22.7
2022-07-31T08:18:19.334Z,22.3
2022-07-31T08:28:24.059Z,21.8
2022-07-31T08:38:23.548Z,21.6
2022-07-31T08:48:25.721Z,21.3
2022-07-31T08:58:27.348Z,21
2022-07-31T09:08:29.714Z,21.2
2022-07-31T09:18:32.024Z,21.2
2022-07-31T09:28:34.557Z,21.8
2022-07-31T09:38:36.881Z,23.5
2022-07-31T09:48:39.426Z,22.1
2022-07-31T09:58:41.819Z,21.9
2022-07-31T10:08:43.667Z,21.9
2022-07-31T10:28:48.859Z,22.3
2022-07-31T10:38:51.100Z,22.7
2022-07-31T10:48:53.778Z,23.5
2022-07-31T10:58:55.377Z,23.5
2022-07-31T11:08:57.746Z,23.7
2022-07-31T11:18:59.622Z,23.8
2022-07-31T11:29:58.004Z,22.9
2022-07-31T11:39:04.339Z,22.7
2022-07-31T11:49:06.220Z,23
2022-07-31T11:59:08.423Z,23.5
2022-07-31T12:10:01.619Z,22.7
2022-07-31T12:19:12.475Z,22.3
2022-07-31T12:49:19.093Z,26.3
2022-07-31T12:59:21.693Z,25.8
2022-07-31T13:09:23.864Z,23.9
2022-07-31T13:19:25.894Z,23.7
2022-07-31T13:29:27.882Z,25
2022-07-31T13:39:30.484Z,25.7
2022-07-31T13:49:32.253Z,25
2022-07-31T13:59:33.823Z,24.2
2022-07-31T14:09:36.191Z,24.1
2022-07-31T14:19:40.648Z,23.8
2022-07-31T14:29:40.603Z,23.8
2022-07-31T14:39:43.213Z,24.8
2022-07-31T14:59:47.470Z,23.8
2022-07-31T15:40:01.825Z,24.7
2022-07-31T16:20:05.233Z,22
2022-07-31T16:30:07.656Z,21.3
2022-07-31T16:40:09.617Z,21.4
2022-07-31T16:50:12.216Z,21.2
2022-07-31T17:00:14.243Z,21
2022-07-31T17:10:16.208Z,20.5
2022-07-31T17:20:18.413Z,19.7
2022-07-31T18:10:44.976Z,19.8
2022-07-31T18:20:30.364Z,19.8
2022-07-31T19:00:39.190Z,19.3
2022-07-31T19:20:57.654Z,19
2022-07-31T19:31:08.012Z,18.8
2022-07-31T19:40:55.754Z,18.7
2022-07-31T19:50:58.350Z,18.6
2022-07-31T20:01:00.142Z,18.7
2022-07-31T20:11:01.964Z,18.6
2022-07-31T20:21:04.139Z,18.7
2022-07-31T20:31:06.618Z,18.7
2022-07-31T20:41:08.465Z,18.8
2022-07-31T20:51:10.215Z,18.8
2022-07-31T21:01:12.456Z,18.8
2022-07-31T21:21:17.051Z,18.8
2022-07-31T21:31:19.673Z,18.8
2022-07-31T21:41:21.723Z,18.8
2022-07-31T21:51:23.297Z,18.7
2022-07-31T22:01:25.824Z,18.7
2022-07-31T22:11:27.708Z,18.6
2022-07-31T22:21:29.722Z,18.6
2022-07-31T22:31:32.054Z,18.6
2022-07-31T22:41:33.973Z,18.7
2022-07-31T22:51:38.529Z,18.7
2022-07-31T23:01:38.830Z,18.6
2022-07-31T23:21:42.643Z,18.6
2022-07-31T23:31:44.423Z,18.5
2022-07-31T23:41:46.322Z,18.6
2022-07-31T23:51:48.897Z,18.5
